createdAt,value
2018-12-27T00:00:18.223Z,16.05
2018-12-27T00:01:20.393Z,16.05
2018-12-27T00:02:23.002Z,16.05
2018-12-27T00:03:25.218Z,16.06
2018-12-27T00:04:27.271Z,16.05
2018-12-27T00:05:29.428Z,16.06
2018-12-27T00:06:31.590Z,16.06
2018-12-27T00:07:33.745Z,16.04
2018-12-27T00:08:36.007Z,16.05
2018-12-27T00:09:37.958Z,16.06
2018-12-27T00:10:40.136Z,16.05
2018-12-27T00:11:42.237Z,16.05
2018-12-27T00:12:44.794Z,16.04
2018-12-27T00:13:46.897Z,16.05
2018-12-27T00:14:49.211Z,16.06
2018-12-27T00:15:51.926Z,16.05
2018-12-27T00:16:54.082Z,16.05
2018-12-27T00:17:56.510Z,16.06
2018-12-27T00:18:58.691Z,16.05
2018-12-27T00:20:00.778Z,16.05
2018-12-27T00:21:02.813Z,16.05
2018-12-27T00:22:04.852Z,16.05
2018-12-27T00:23:06.788Z,16.06
2018-12-27T00:24:09.183Z,16.06
2018-12-27T00:25:11.127Z,16.06
2018-12-27T00:26:13.090Z,16.04
2018-12-27T00:27:15.059Z,16.07
2018-12-27T00:28:16.995Z,16.07
2018-12-27T00:29:19.327Z,16.06
2018-12-27T00:30:21.264Z,16.08
2018-12-27T00:31:23.311Z,16.07
2018-12-27T00:32:25.468Z,16.08
2018-12-27T00:33:27.469Z,16.08
2018-12-27T00:34:29.578Z,16.07
2018-12-27T00:35:31.526Z,16.07
2018-12-27T00:36:33.489Z,16.07
2018-12-27T00:37:35.441Z,16.07
2018-12-27T00:38:37.395Z,16.08
2018-12-27T00:39:39.635Z,16.08
2018-12-27T00:40:41.585Z,16.07
2018-12-27T00:41:43.793Z,16.07
2018-12-27T00:42:45.745Z,16.07
2018-12-27T00:43:47.712Z,16.08
2018-12-27T00:44:49.866Z,16.08
2018-12-27T00:45:51.875Z,16.07
2018-12-27T00:46:53.862Z,16.08
2018-12-27T00:47:55.787Z,16.07
2018-12-27T00:48:57.772Z,16.07
2018-12-27T00:49:59.699Z,16.08
2018-12-27T00:51:01.638Z,16.08
2018-12-27T00:52:03.618Z,16.07
2018-12-27T00:53:05.645Z,16.07
2018-12-27T00:54:07.656Z,16.08
2018-12-27T00:55:09.666Z,16.08
2018-12-27T00:56:11.649Z,16.08
2018-12-27T00:57:13.724Z,16.07
2018-12-27T00:58:15.655Z,16.07
2018-12-27T00:59:17.622Z,16.08
2018-12-27T01:00:19.567Z,16.07
2018-12-27T01:01:22.865Z,16.08
2018-12-27T01:02:24.899Z,16.08
2018-12-27T01:03:28.149Z,16.08
2018-12-27T01:04:30.098Z,16.07
2018-12-27T01:05:32.044Z,16.07
2018-12-27T01:06:34.046Z,16.05
2018-12-27T01:07:37.567Z,16.07
2018-12-27T01:08:39.519Z,16.08
2018-12-27T01:09:41.527Z,16.07
2018-12-27T01:10:45.301Z,16.06
2018-12-27T01:11:47.251Z,16.07
2018-12-27T01:12:51.365Z,16.07
2018-12-27T01:13:53.449Z,16.07
2018-12-27T01:14:55.495Z,16.07
2018-12-27T01:15:57.433Z,16.07
2018-12-27T01:16:59.402Z,16.07
2018-12-27T01:18:01.393Z,16.08
2018-12-27T01:19:03.409Z,16.07
2018-12-27T01:20:05.362Z,16.07
2018-12-27T01:21:07.319Z,16.07
2018-12-27T01:22:09.246Z,16.07
2018-12-27T01:23:11.289Z,16.07
2018-12-27T01:24:13.814Z,16.08
2018-12-27T01:25:15.788Z,16.06
2018-12-27T01:26:17.782Z,16.06
2018-12-27T01:27:19.731Z,16.05
2018-12-27T01:28:21.682Z,16.06
2018-12-27T01:29:24.707Z,16.06
2018-12-27T01:30:26.631Z,16.06
2018-12-27T01:31:28.579Z,16.06
2018-12-27T01:32:30.517Z,16.06
2018-12-27T01:36:35.162Z,16.06
2018-12-27T01:37:37.113Z,16.05
2018-12-27T01:38:39.063Z,16.04
2018-12-27T01:39:41.003Z,16.05
2018-12-27T01:40:42.945Z,16.05
2018-12-27T01:41:44.881Z,16.04
2018-12-27T01:42:47.123Z,16.03
2018-12-27T01:43:49.247Z,16.03
2018-12-27T01:44:51.201Z,16.02
2018-12-27T01:45:54.337Z,16.02
2018-12-27T01:46:56.387Z,16.03
2018-12-27T01:47:58.339Z,16.02
2018-12-27T01:49:00.275Z,16.02
2018-12-27T01:50:02.211Z,16.02
2018-12-27T01:51:04.181Z,16.02
2018-12-27T01:52:06.278Z,16.02
2018-12-27T01:53:08.227Z,16.01
2018-12-27T01:54:10.160Z,16.01
2018-12-27T01:55:12.119Z,16.01
2018-12-27T01:56:14.127Z,16.00
2018-12-27T01:57:16.119Z,16.00
2018-12-27T01:58:18.069Z,16.00
2018-12-27T01:59:20.025Z,16.00
2018-12-27T02:00:22.047Z,15.99
2018-12-27T02:01:23.989Z,15.99
2018-12-27T02:02:26.049Z,16.00
2018-12-27T02:03:28.069Z,16.00
2018-12-27T02:04:30.022Z,15.99
2018-12-27T02:05:34.427Z,15.98
2018-12-27T02:06:36.377Z,15.99
2018-12-27T02:07:38.365Z,15.98
2018-12-27T02:08:42.208Z,15.98
2018-12-27T02:09:44.233Z,15.99
2018-12-27T02:10:46.246Z,15.98
2018-12-27T02:11:48.192Z,15.98
2018-12-27T02:12:50.241Z,15.98
2018-12-27T02:13:52.263Z,15.98
2018-12-27T02:14:54.207Z,15.98
2018-12-27T02:15:56.139Z,15.98
2018-12-27T02:16:58.079Z,15.98
2018-12-27T02:18:00.047Z,15.98
2018-12-27T02:19:01.985Z,15.97
2018-12-27T02:20:03.944Z,15.98
2018-12-27T02:21:05.964Z,15.97
2018-12-27T02:22:07.976Z,15.98
2018-12-27T02:23:09.955Z,15.98
2018-12-27T02:24:11.901Z,15.97
2018-12-27T02:25:14.454Z,15.97
2018-12-27T02:26:16.478Z,15.97
2018-12-27T02:27:18.487Z,15.97
2018-12-27T02:28:20.454Z,15.96
2018-12-27T02:29:22.412Z,15.96
2018-12-27T02:30:24.436Z,15.96
2018-12-27T02:31:26.535Z,15.96
2018-12-27T02:32:28.583Z,15.96
2018-12-27T02:33:35.169Z,15.96
2018-12-27T02:34:34.468Z,15.96
2018-12-27T02:35:36.416Z,15.96
2018-12-27T02:36:38.361Z,15.95
2018-12-27T02:37:40.296Z,15.94
2018-12-27T02:38:42.264Z,15.95
2018-12-27T02:39:44.209Z,15.96
2018-12-27T02:40:46.233Z,15.95
2018-12-27T02:41:48.171Z,15.95
2018-12-27T02:42:50.189Z,15.94
2018-12-27T02:43:52.193Z,15.95
2018-12-27T02:44:56.615Z,15.95
2018-12-27T02:45:57.827Z,15.94
2018-12-27T02:46:59.769Z,15.94
2018-12-27T02:48:01.721Z,15.94
2018-12-27T02:49:03.771Z,15.93
2018-12-27T02:50:05.723Z,15.94
2018-12-27T02:51:07.753Z,15.94
2018-12-27T02:52:09.714Z,15.94
2018-12-27T02:53:11.657Z,15.93
2018-12-27T02:54:13.638Z,15.94
2018-12-27T02:55:15.589Z,15.93
2018-12-27T02:56:17.609Z,15.94
2018-12-27T02:57:19.618Z,15.94
2018-12-27T02:58:21.567Z,15.95
2018-12-27T02:59:23.550Z,15.95
2018-12-27T03:00:25.494Z,15.94
2018-12-27T03:01:27.507Z,15.95
2018-12-27T03:02:29.472Z,15.96
2018-12-27T03:03:31.478Z,15.96
2018-12-27T03:04:33.696Z,15.95
2018-12-27T03:05:35.627Z,15.96
2018-12-27T03:06:37.578Z,15.96
2018-12-27T03:07:39.610Z,15.96
2018-12-27T03:08:41.565Z,15.97
2018-12-27T03:09:43.539Z,15.96
2018-12-27T03:10:45.487Z,15.96
2018-12-27T03:11:47.439Z,15.97
2018-12-27T03:12:49.387Z,15.97
2018-12-27T03:13:51.337Z,15.98
2018-12-27T03:14:53.312Z,15.98
2018-12-27T03:15:55.330Z,15.97
2018-12-27T03:16:57.354Z,15.98
2018-12-27T03:17:59.291Z,15.98
2018-12-27T03:19:01.295Z,15.98
2018-12-27T03:20:03.273Z,15.98
2018-12-27T03:21:05.289Z,15.99
2018-12-27T03:22:07.316Z,15.99
2018-12-27T03:23:09.372Z,15.98
2018-12-27T03:24:11.328Z,15.98
2018-12-27T03:25:13.383Z,15.99
2018-12-27T03:26:15.338Z,15.98
2018-12-27T03:27:17.372Z,15.99
2018-12-27T03:28:19.403Z,15.99
2018-12-27T03:29:21.349Z,15.99
2018-12-27T03:30:23.327Z,15.99
2018-12-27T03:31:25.354Z,15.99
2018-12-27T03:32:27.483Z,16.00
2018-12-27T03:33:29.507Z,15.98
2018-12-27T03:34:31.459Z,16.00
2018-12-27T03:35:33.499Z,16.00
2018-12-27T03:36:35.444Z,15.99
2018-12-27T03:37:37.446Z,15.99
2018-12-27T03:38:39.411Z,16.00
2018-12-27T03:39:41.419Z,16.00
2018-12-27T03:40:43.532Z,16.00
2018-12-27T03:41:47.171Z,16.01
2018-12-27T03:42:49.101Z,16.01
2018-12-27T03:43:51.052Z,16.01
2018-12-27T03:44:53.078Z,16.01
2018-12-27T03:45:55.059Z,16.00
2018-12-27T03:46:57.091Z,16.01
2018-12-27T03:47:59.108Z,16.00
2018-12-27T03:49:01.131Z,16.00
2018-12-27T03:50:03.073Z,16.01
2018-12-27T03:51:05.044Z,16.01
2018-12-27T03:52:07.061Z,16.00
2018-12-27T03:53:09.076Z,16.00
2018-12-27T03:54:11.033Z,16.01
2018-12-27T03:55:12.982Z,16.00
2018-12-27T03:56:14.971Z,16.00
2018-12-27T03:57:16.997Z,16.01
2018-12-27T03:58:19.021Z,16.00
2018-12-27T03:59:20.957Z,16.02
2018-12-27T04:00:23.921Z,16.01
2018-12-27T04:01:25.963Z,16.01
2018-12-27T04:02:27.985Z,16.01
2018-12-27T04:03:30.036Z,16.00
2018-12-27T04:04:31.988Z,16.01
2018-12-27T04:05:34.015Z,16.02
2018-12-27T04:06:36.061Z,16.02
2018-12-27T04:07:38.016Z,16.01
2018-12-27T04:08:40.034Z,16.02
2018-12-27T04:09:41.985Z,16.02
2018-12-27T04:10:43.944Z,16.02
2018-12-27T04:11:45.927Z,16.01
2018-12-27T04:12:47.880Z,16.02
2018-12-27T04:13:50.919Z,16.03
2018-12-27T04:14:52.855Z,16.03
2018-12-27T04:15:55.022Z,16.02
2018-12-27T04:17:00.801Z,16.01
2018-12-27T04:18:02.821Z,16.02
2018-12-27T04:19:04.761Z,16.02
2018-12-27T04:20:06.786Z,16.03
2018-12-27T04:21:08.799Z,16.02
2018-12-27T04:22:10.773Z,16.03
2018-12-27T04:23:15.880Z,16.03
2018-12-27T04:24:19.283Z,16.04
2018-12-27T04:25:21.231Z,16.03
2018-12-27T04:26:23.182Z,16.02
2018-12-27T04:27:25.189Z,16.03
2018-12-27T04:28:27.158Z,16.03
2018-12-27T04:29:29.085Z,16.03
2018-12-27T04:30:31.055Z,16.03
2018-12-27T04:31:33.082Z,16.03
2018-12-27T04:32:35.041Z,16.03
2018-12-27T04:33:37.048Z,16.03
2018-12-27T04:34:38.988Z,16.04
2018-12-27T04:35:40.942Z,16.03
2018-12-27T04:36:42.983Z,16.03
2018-12-27T04:37:45.024Z,16.04
2018-12-27T04:38:47.041Z,16.03
2018-12-27T04:39:49.070Z,16.04
2018-12-27T04:40:51.000Z,16.03
2018-12-27T04:41:52.935Z,16.03
2018-12-27T04:42:54.915Z,16.03
2018-12-27T04:43:56.867Z,16.03
2018-12-27T04:44:58.808Z,16.03
2018-12-27T04:46:00.821Z,16.04
2018-12-27T04:47:02.831Z,16.06
2018-12-27T04:48:04.793Z,16.04
2018-12-27T04:49:06.743Z,16.05
2018-12-27T04:50:08.783Z,16.04
2018-12-27T04:51:10.777Z,16.04
2018-12-27T04:52:14.436Z,16.03
2018-12-27T04:53:16.466Z,16.03
2018-12-27T04:54:18.406Z,16.04
2018-12-27T04:55:20.366Z,16.04
2018-12-27T04:56:22.298Z,16.04
2018-12-27T04:57:24.246Z,16.05
2018-12-27T04:58:26.303Z,16.04
2018-12-27T04:59:28.240Z,16.05
2018-12-27T05:00:30.250Z,16.05
2018-12-27T05:01:32.207Z,16.05
2018-12-27T05:02:34.157Z,16.04
2018-12-27T05:03:36.126Z,16.04
2018-12-27T05:04:38.076Z,16.05
2018-12-27T05:05:40.029Z,16.04
2018-12-27T05:06:42.051Z,16.04
2018-12-27T05:07:43.988Z,16.04
2018-12-27T05:08:45.948Z,16.05
2018-12-27T05:09:47.988Z,16.05
2018-12-27T05:10:50.930Z,16.04
2018-12-27T05:11:52.870Z,16.03
2018-12-27T05:12:54.807Z,16.06
2018-12-27T05:13:58.230Z,16.06
2018-12-27T05:15:00.291Z,16.05
2018-12-27T05:16:02.240Z,16.04
2018-12-27T05:17:04.174Z,16.05
2018-12-27T05:18:06.116Z,16.04
2018-12-27T05:19:08.165Z,16.06
2018-12-27T05:20:10.179Z,16.05
2018-12-27T05:21:12.118Z,16.06
2018-12-27T05:22:14.059Z,16.07
2018-12-27T05:23:16.122Z,16.06
2018-12-27T05:24:19.522Z,16.06
2018-12-27T05:25:21.495Z,16.06
2018-12-27T05:26:23.547Z,16.06
2018-12-27T05:27:25.563Z,16.06
2018-12-27T05:28:27.592Z,16.06
2018-12-27T05:29:29.550Z,16.06
2018-12-27T05:30:31.491Z,16.06
2018-12-27T05:31:33.518Z,16.06
2018-12-27T05:32:35.536Z,16.06
2018-12-27T05:33:37.476Z,16.06
2018-12-27T05:34:39.448Z,16.07
2018-12-27T05:35:44.310Z,16.06
2018-12-27T05:36:46.334Z,16.07
2018-12-27T05:37:48.278Z,16.06
2018-12-27T05:38:50.218Z,16.06
2018-12-27T05:39:52.187Z,16.07
2018-12-27T05:40:54.224Z,16.07
2018-12-27T05:41:56.361Z,16.07
2018-12-27T05:42:58.383Z,16.07
2018-12-27T05:44:00.320Z,16.07
2018-12-27T05:45:02.292Z,16.07
2018-12-27T05:46:04.218Z,16.08
2018-12-27T05:47:06.290Z,16.09
2018-12-27T05:48:08.236Z,16.09
2018-12-27T05:49:10.240Z,16.10
2018-12-27T05:50:12.194Z,16.09
2018-12-27T05:51:14.138Z,16.10
2018-12-27T05:52:16.084Z,16.10
2018-12-27T05:53:18.092Z,16.10
2018-12-27T05:54:20.204Z,16.10
2018-12-27T05:55:22.177Z,16.11
2018-12-27T05:56:24.122Z,16.11
2018-12-27T05:57:26.062Z,16.11
2018-12-27T05:58:28.007Z,16.10
2018-12-27T05:59:29.956Z,16.11
2018-12-27T06:00:31.916Z,16.11
2018-12-27T06:01:33.868Z,16.10
2018-12-27T06:02:35.822Z,16.10
2018-12-27T06:03:37.768Z,16.09
2018-12-27T06:04:39.711Z,16.09
2018-12-27T06:05:41.678Z,16.10
2018-12-27T06:06:43.681Z,16.09
2018-12-27T06:07:47.805Z,16.08
2018-12-27T06:08:49.738Z,16.07
2018-12-27T06:09:51.696Z,16.08
2018-12-27T06:10:53.743Z,16.07
2018-12-27T06:11:56.458Z,16.07
2018-12-27T06:12:58.423Z,16.05
2018-12-27T06:14:00.366Z,16.06
2018-12-27T06:15:02.327Z,16.05
2018-12-27T06:16:04.398Z,16.05
2018-12-27T06:17:09.226Z,16.04
2018-12-27T06:18:11.184Z,16.04
2018-12-27T06:19:13.135Z,16.03
2018-12-27T06:20:15.099Z,16.03
2018-12-27T06:21:17.057Z,16.03
2018-12-27T06:22:19.003Z,16.02
2018-12-27T06:23:20.955Z,16.02
2018-12-27T06:24:24.487Z,16.01
2018-12-27T06:25:26.435Z,16.01
2018-12-27T06:26:28.659Z,16.01
2018-12-27T06:27:30.600Z,16.01
2018-12-27T06:28:32.642Z,15.99
2018-12-27T06:29:34.640Z,15.98
2018-12-27T06:30:36.602Z,15.98
2018-12-27T06:31:38.638Z,15.97
2018-12-27T06:32:40.591Z,15.98
2018-12-27T06:33:42.543Z,15.97
2018-12-27T06:34:44.485Z,15.96
2018-12-27T06:35:46.445Z,15.97
2018-12-27T06:36:48.511Z,15.95
2018-12-27T06:37:50.464Z,15.96
2018-12-27T06:38:52.483Z,15.96
2018-12-27T06:39:54.437Z,15.95
2018-12-27T06:40:56.391Z,15.94
2018-12-27T06:41:59.437Z,15.95
2018-12-27T06:43:01.487Z,15.94
2018-12-27T06:44:03.436Z,15.94
2018-12-27T06:45:05.383Z,15.93
2018-12-27T06:46:07.347Z,15.93
2018-12-27T06:47:09.335Z,15.93
2018-12-27T06:48:11.273Z,15.93
2018-12-27T06:49:13.217Z,15.93
2018-12-27T06:50:15.244Z,15.92
2018-12-27T06:51:17.210Z,15.92
2018-12-27T06:52:19.173Z,15.92
2018-12-27T06:53:21.119Z,15.92
2018-12-27T06:54:24.281Z,15.91
2018-12-27T06:55:26.278Z,15.92
2018-12-27T06:56:28.238Z,15.91
2018-12-27T06:57:30.295Z,15.91
2018-12-27T06:58:37.678Z,15.91
2018-12-27T06:59:35.959Z,15.92
2018-12-27T07:00:37.901Z,15.91
2018-12-27T07:01:39.843Z,15.89
2018-12-27T07:02:42.321Z,15.92
2018-12-27T07:03:44.267Z,15.91
2018-12-27T07:04:49.077Z,15.91
2018-12-27T07:05:49.916Z,15.91
2018-12-27T07:06:53.052Z,15.89
2018-12-27T07:07:55.106Z,15.89
2018-12-27T07:08:57.051Z,15.90
2018-12-27T07:09:58.981Z,15.89
2018-12-27T07:11:03.687Z,15.90
2018-12-27T07:12:05.701Z,15.89
2018-12-27T07:13:07.689Z,15.87
2018-12-27T07:14:10.936Z,15.87
2018-12-27T07:15:12.856Z,15.88
2018-12-27T07:16:14.914Z,15.89
2018-12-27T07:17:16.898Z,15.86
2018-12-27T07:18:18.872Z,15.87
2018-12-27T07:19:20.833Z,15.87
2018-12-27T07:20:22.867Z,15.87
2018-12-27T07:21:24.883Z,15.86
2018-12-27T07:22:26.895Z,15.87
2018-12-27T07:23:28.880Z,15.86
2018-12-27T07:24:30.916Z,15.86
2018-12-27T07:25:32.923Z,15.86
2018-12-27T07:26:36.450Z,15.85
2018-12-27T07:27:38.489Z,15.87
2018-12-27T07:28:40.478Z,15.86
2018-12-27T07:29:42.424Z,15.87
2018-12-27T07:30:44.395Z,15.86
2018-12-27T07:31:46.410Z,15.87
2018-12-27T07:32:48.362Z,15.86
2018-12-27T07:33:50.363Z,15.86
2018-12-27T07:34:56.542Z,15.86
2018-12-27T07:35:56.063Z,15.85
2018-12-27T07:36:58.014Z,15.84
2018-12-27T07:38:00.042Z,15.84
2018-12-27T07:39:04.409Z,15.85
2018-12-27T07:40:06.362Z,15.83
2018-12-27T07:41:08.320Z,15.84
2018-12-27T07:42:10.358Z,15.84
2018-12-27T07:43:12.323Z,15.85
2018-12-27T07:44:14.384Z,15.84
2018-12-27T07:45:16.397Z,15.83
2018-12-27T07:46:18.343Z,15.84
2018-12-27T07:47:20.294Z,15.83
2018-12-27T07:48:22.236Z,15.83
2018-12-27T07:49:24.208Z,15.83
2018-12-27T07:50:29.365Z,15.83
2018-12-27T07:51:31.394Z,15.85
2018-12-27T07:52:33.402Z,15.83
2018-12-27T07:53:35.330Z,15.83
2018-12-27T07:54:37.311Z,15.83
2018-12-27T07:55:39.322Z,15.82
2018-12-27T07:56:41.272Z,15.84
2018-12-27T07:57:44.484Z,15.85
2018-12-27T07:58:46.454Z,15.83
2018-12-27T07:59:48.430Z,15.83
2018-12-27T08:00:50.370Z,15.84
2018-12-27T08:01:52.393Z,15.83
2018-12-27T08:02:54.344Z,15.82
2018-12-27T08:03:56.302Z,15.83
2018-12-27T08:05:04.013Z,15.84
2018-12-27T08:06:01.958Z,15.84
2018-12-27T08:07:03.917Z,15.83
2018-12-27T08:08:05.885Z,15.83
2018-12-27T08:09:07.901Z,15.82
2018-12-27T08:10:09.875Z,15.84
2018-12-27T08:11:11.828Z,15.82
2018-12-27T08:12:13.770Z,15.83
2018-12-27T08:13:15.707Z,15.81
2018-12-27T08:14:17.657Z,15.82
2018-12-27T08:15:19.665Z,15.81
2018-12-27T08:16:21.609Z,15.82
2018-12-27T08:17:23.633Z,15.81
2018-12-27T08:18:25.578Z,15.81
2018-12-27T08:19:27.517Z,15.81
2018-12-27T08:20:29.569Z,15.81
2018-12-27T08:21:31.517Z,15.82
2018-12-27T08:22:35.671Z,15.82
2018-12-27T08:23:37.618Z,15.80
2018-12-27T08:24:39.623Z,15.81
2018-12-27T08:25:41.598Z,15.82
2018-12-27T08:26:43.674Z,15.83
2018-12-27T08:27:45.918Z,15.82
2018-12-27T08:28:47.945Z,15.81
2018-12-27T08:29:52.146Z,15.82
2018-12-27T08:30:54.120Z,15.81
2018-12-27T08:31:58.287Z,15.82
2018-12-27T08:33:00.240Z,15.81
2018-12-27T08:34:02.265Z,15.80
2018-12-27T08:35:11.222Z,15.82
2018-12-27T08:36:08.510Z,15.81
2018-12-27T08:37:10.515Z,15.82
2018-12-27T08:38:12.579Z,15.82
2018-12-27T08:39:14.519Z,15.82
2018-12-27T08:40:16.477Z,15.81
2018-12-27T08:41:18.513Z,15.82
2018-12-27T08:42:20.541Z,15.83
2018-12-27T08:43:22.551Z,15.82
2018-12-27T08:44:24.491Z,15.82
2018-12-27T08:45:26.783Z,15.82
2018-12-27T08:46:28.896Z,15.82
2018-12-27T08:47:30.911Z,15.82
2018-12-27T08:48:32.925Z,15.81
2018-12-27T08:49:34.847Z,15.81
2018-12-27T08:50:36.772Z,15.81
2018-12-27T08:51:38.717Z,15.81
2018-12-27T08:52:40.652Z,15.81
2018-12-27T08:53:42.585Z,15.81
2018-12-27T08:54:44.540Z,15.81
2018-12-27T08:55:46.542Z,15.81
2018-12-27T08:56:48.521Z,15.82
2018-12-27T08:57:50.542Z,15.81
2018-12-27T08:58:52.593Z,15.80
2018-12-27T08:59:54.538Z,15.81
2018-12-27T09:00:56.488Z,15.80
2018-12-27T09:01:58.446Z,15.82
2018-12-27T09:03:00.390Z,15.82
2018-12-27T09:04:02.329Z,15.81
2018-12-27T09:05:04.269Z,15.81
2018-12-27T09:06:06.222Z,15.81
2018-12-27T09:07:08.189Z,15.81
2018-12-27T09:08:10.126Z,15.80
2018-12-27T09:09:12.151Z,15.81
2018-12-27T09:10:14.085Z,15.83
2018-12-27T09:11:16.099Z,15.82
2018-12-27T09:12:18.074Z,15.82
2018-12-27T09:13:20.014Z,15.80
2018-12-27T09:14:21.959Z,15.82
2018-12-27T09:15:23.911Z,15.82
2018-12-27T09:16:25.872Z,15.82
2018-12-27T09:17:27.927Z,15.83
2018-12-27T09:18:29.853Z,15.81
2018-12-27T09:19:31.803Z,15.81
2018-12-27T09:20:33.756Z,15.82
2018-12-27T09:21:35.715Z,15.81
2018-12-27T09:22:37.761Z,15.81
2018-12-27T09:23:39.771Z,15.82
2018-12-27T09:24:41.799Z,15.82
2018-12-27T09:25:45.509Z,15.81
2018-12-27T09:26:47.439Z,15.82
2018-12-27T09:27:49.424Z,15.80
2018-12-27T09:28:51.378Z,15.82
2018-12-27T09:29:53.310Z,15.82
2018-12-27T09:30:55.243Z,15.82
2018-12-27T09:31:57.170Z,15.82
2018-12-27T09:32:59.148Z,15.81
2018-12-27T09:34:01.077Z,15.81
2018-12-27T09:35:03.010Z,15.81
2018-12-27T09:36:04.941Z,15.82
2018-12-27T09:37:06.890Z,15.82
2018-12-27T09:38:08.865Z,15.82
2018-12-27T09:39:10.801Z,15.83
2018-12-27T09:40:12.761Z,15.83
2018-12-27T09:41:14.773Z,15.83
2018-12-27T09:42:17.285Z,15.82
2018-12-27T09:43:19.256Z,15.82
2018-12-27T09:44:21.209Z,15.81
2018-12-27T09:45:23.154Z,15.82
2018-12-27T09:46:25.106Z,15.81
2018-12-27T09:47:27.036Z,15.81
2018-12-27T09:48:29.025Z,15.82
2018-12-27T09:49:30.971Z,15.82
2018-12-27T09:50:33.009Z,15.81
2018-12-27T09:51:35.075Z,15.82
2018-12-27T09:52:37.200Z,15.82
2018-12-27T09:53:39.627Z,15.81
2018-12-27T09:54:42.577Z,15.82
2018-12-27T09:55:44.655Z,15.83
2018-12-27T09:56:46.805Z,15.83
2018-12-27T09:57:48.811Z,15.83
2018-12-27T09:58:50.807Z,15.84
2018-12-27T09:59:53.873Z,15.84
2018-12-27T10:00:55.904Z,15.83
2018-12-27T10:01:57.847Z,15.83
2018-12-27T10:02:59.813Z,15.82
2018-12-27T10:04:01.765Z,15.83
2018-12-27T10:05:03.726Z,15.83
2018-12-27T10:06:05.702Z,15.82
2018-12-27T10:07:07.760Z,15.84
2018-12-27T10:08:09.718Z,15.84
2018-12-27T10:09:11.683Z,15.82
2018-12-27T10:10:13.637Z,15.83
2018-12-27T10:11:15.583Z,15.84
2018-12-27T10:12:17.513Z,15.84
2018-12-27T10:13:19.468Z,15.84
2018-12-27T10:14:21.502Z,15.84
2018-12-27T10:15:23.434Z,15.85
2018-12-27T10:16:25.387Z,15.84
2018-12-27T10:17:29.002Z,15.84
2018-12-27T10:18:30.931Z,15.83
2018-12-27T10:19:32.906Z,15.83
2018-12-27T10:20:34.850Z,15.83
2018-12-27T10:21:36.792Z,15.83
2018-12-27T10:22:38.766Z,15.83
2018-12-27T10:23:41.225Z,15.82
2018-12-27T10:24:43.191Z,15.82
2018-12-27T10:25:45.210Z,15.83
2018-12-27T10:26:47.179Z,15.83
2018-12-27T10:27:49.187Z,15.82
2018-12-27T10:28:51.129Z,15.82
2018-12-27T10:29:53.100Z,15.82
2018-12-27T10:30:59.743Z,15.82
2018-12-27T10:31:58.807Z,15.81
2018-12-27T10:33:00.754Z,15.82
2018-12-27T10:34:02.712Z,15.82
2018-12-27T10:35:04.673Z,15.81
2018-12-27T10:36:07.195Z,15.83
2018-12-27T10:37:09.153Z,15.83
2018-12-27T10:38:11.171Z,15.81
2018-12-27T10:39:13.102Z,15.82
2018-12-27T10:40:15.068Z,15.81
2018-12-27T10:41:17.073Z,15.83
2018-12-27T10:42:19.020Z,15.82
2018-12-27T10:43:21.045Z,15.82
2018-12-27T10:44:23.018Z,15.82
2018-12-27T10:45:25.033Z,15.82
2018-12-27T10:46:26.971Z,15.83
2018-12-27T10:47:28.906Z,15.83
2018-12-27T10:48:30.844Z,15.81
2018-12-27T10:49:35.608Z,15.82
2018-12-27T10:50:37.570Z,15.83
2018-12-27T10:51:39.527Z,15.83
2018-12-27T10:52:41.468Z,15.83
2018-12-27T10:53:43.420Z,15.81
2018-12-27T10:54:45.371Z,15.82
2018-12-27T10:55:47.334Z,15.82
2018-12-27T10:56:49.277Z,15.83
2018-12-27T10:57:53.072Z,15.83
2018-12-27T10:58:55.006Z,15.83
2018-12-27T10:59:56.960Z,15.83
2018-12-27T11:00:58.931Z,15.82
2018-12-27T11:02:00.878Z,15.82
2018-12-27T11:03:02.842Z,15.82
2018-12-27T11:04:04.857Z,15.82
2018-12-27T11:05:06.807Z,15.81
2018-12-27T11:06:08.870Z,15.82
2018-12-27T11:07:12.666Z,15.82
2018-12-27T11:08:14.634Z,15.82
2018-12-27T11:09:16.598Z,15.82
2018-12-27T11:10:18.538Z,15.81
2018-12-27T11:11:20.593Z,15.81
2018-12-27T11:12:22.611Z,15.81
2018-12-27T11:13:24.624Z,15.81
2018-12-27T11:14:26.564Z,15.81
2018-12-27T11:15:28.531Z,15.82
2018-12-27T11:16:30.489Z,15.81
2018-12-27T11:17:32.434Z,15.82
2018-12-27T11:18:34.386Z,15.82
2018-12-27T11:19:36.327Z,15.81
2018-12-27T11:20:40.207Z,15.82
2018-12-27T11:21:42.185Z,15.82
2018-12-27T11:22:44.190Z,15.82
2018-12-27T11:23:49.457Z,15.82
2018-12-27T11:24:51.388Z,15.81
2018-12-27T11:25:53.323Z,15.80
2018-12-27T11:26:55.296Z,15.81
2018-12-27T11:27:57.241Z,15.80
2018-12-27T11:28:59.257Z,15.81
2018-12-27T11:30:01.206Z,15.81
2018-12-27T11:31:05.302Z,15.80
2018-12-27T11:32:07.273Z,15.81
2018-12-27T11:33:09.209Z,15.82
2018-12-27T11:34:11.143Z,15.81
2018-12-27T11:35:13.069Z,15.83
2018-12-27T11:36:17.465Z,15.83
2018-12-27T11:37:18.730Z,15.82
2018-12-27T11:38:20.762Z,15.82
2018-12-27T11:39:22.780Z,15.83
2018-12-27T11:40:24.800Z,15.81
2018-12-27T11:41:26.824Z,15.81
2018-12-27T11:42:28.786Z,15.81
2018-12-27T11:43:30.716Z,15.81
2018-12-27T11:44:32.671Z,15.82
2018-12-27T11:45:34.678Z,15.82
2018-12-27T11:46:36.642Z,15.81
2018-12-27T11:47:38.674Z,15.81
2018-12-27T11:48:40.618Z,15.83
2018-12-27T11:49:42.561Z,15.83
2018-12-27T11:50:44.489Z,15.85
2018-12-27T11:51:46.429Z,15.85
2018-12-27T11:52:48.374Z,15.86
2018-12-27T11:53:50.315Z,15.87
2018-12-27T11:54:52.369Z,15.87
2018-12-27T11:55:54.660Z,15.88
2018-12-27T11:56:56.613Z,15.89
2018-12-27T11:57:58.586Z,15.90
2018-12-27T11:59:00.566Z,15.91
2018-12-27T12:00:02.540Z,15.91
2018-12-27T12:01:04.572Z,15.91
2018-12-27T12:02:06.597Z,15.91
2018-12-27T12:03:08.556Z,15.93
2018-12-27T12:04:10.515Z,15.94
2018-12-27T12:05:12.442Z,15.93
2018-12-27T12:06:14.395Z,15.94
2018-12-27T12:07:16.329Z,15.95
2018-12-27T12:08:18.300Z,15.94
2018-12-27T12:09:20.252Z,15.96
2018-12-27T12:10:22.189Z,15.96
2018-12-27T12:11:24.200Z,15.98
2018-12-27T12:12:26.245Z,15.97
2018-12-27T12:13:28.282Z,15.98
2018-12-27T12:14:30.229Z,15.98
2018-12-27T12:15:32.365Z,15.99
2018-12-27T12:16:34.297Z,15.99
2018-12-27T12:17:36.240Z,16.00
2018-12-27T12:18:38.214Z,16.00
2018-12-27T12:19:40.145Z,16.00
2018-12-27T12:20:42.091Z,16.01
2018-12-27T12:21:44.052Z,16.01
2018-12-27T12:22:45.990Z,16.02
2018-12-27T12:23:47.952Z,16.01
2018-12-27T12:24:49.931Z,16.02
2018-12-27T12:25:51.970Z,16.02
2018-12-27T12:26:53.916Z,16.03
2018-12-27T12:27:55.884Z,16.03
2018-12-27T12:28:57.951Z,16.04
2018-12-27T12:29:59.977Z,16.04
2018-12-27T12:31:02.005Z,16.03
2018-12-27T12:32:03.955Z,16.04
2018-12-27T12:33:05.894Z,16.04
2018-12-27T12:34:07.895Z,16.04
2018-12-27T12:35:09.840Z,16.04
2018-12-27T12:36:11.865Z,16.04
2018-12-27T12:37:14.338Z,16.04
2018-12-27T12:38:16.448Z,16.05
2018-12-27T12:39:18.486Z,16.04
2018-12-27T12:40:20.421Z,16.05
2018-12-27T12:41:22.361Z,16.06
2018-12-27T12:42:32.903Z,16.04
2018-12-27T12:43:27.985Z,16.05
2018-12-27T12:44:32.103Z,16.06
2018-12-27T12:45:34.045Z,16.05
2018-12-27T12:46:35.996Z,16.05
2018-12-27T12:47:37.962Z,16.05
2018-12-27T12:48:39.987Z,16.04
2018-12-27T12:49:41.968Z,16.05
2018-12-27T12:50:44.279Z,16.04
2018-12-27T12:51:46.235Z,16.05
2018-12-27T12:52:48.267Z,16.04
2018-12-27T12:53:50.302Z,16.04
2018-12-27T12:54:52.359Z,16.05
2018-12-27T12:55:54.314Z,16.05
2018-12-27T12:56:56.276Z,16.04
2018-12-27T12:57:58.308Z,16.05
2018-12-27T12:59:00.341Z,16.03
2018-12-27T13:00:02.388Z,16.04
2018-12-27T13:01:04.366Z,16.03
2018-12-27T13:02:06.395Z,16.03
2018-12-27T13:03:08.378Z,16.03
2018-12-27T13:04:10.436Z,16.04
2018-12-27T13:05:14.994Z,16.04
2018-12-27T13:06:18.135Z,16.03
2018-12-27T13:07:20.517Z,16.03
2018-12-27T13:08:22.574Z,16.04
2018-12-27T13:09:24.618Z,16.04
2018-12-27T13:10:26.604Z,16.04
2018-12-27T13:11:28.572Z,16.03
2018-12-27T13:12:30.603Z,16.03
2018-12-27T13:13:32.537Z,16.03
2018-12-27T13:14:34.496Z,16.03
2018-12-27T13:15:36.438Z,16.03
2018-12-27T13:16:38.389Z,16.02
2018-12-27T13:17:40.915Z,16.03
2018-12-27T13:18:47.232Z,16.03
2018-12-27T13:19:46.735Z,16.01
2018-12-27T13:20:48.716Z,16.03
2018-12-27T13:21:50.663Z,16.03
2018-12-27T13:22:52.602Z,16.02